Terminal Aerodrome Forecast
Issued by NWS

Home | Current Version | Previous Version | Graphics & Text | Print | Product List | Glossary On
Versions: 1 2 3 4 5 6 7 8 9 10 11 12 13 14 15 16 17 18 19 20
000
FTUS43 KGRB 031400 AAB
TAFATW
TAF AMD
KATW 031440Z 0315/0412 16009G15KT 1 1/2SM -SN BKN014
      TEMPO 0315/0318 1/2SM SN FZFG BKN006
     FM031900 21009KT 3SM -SN BKN015
     FM032100 24009KT 6SM -SN OVC018
     FM032300 27010KT P6SM -SN SCT009 OVC025
     FM040200 28012G20KT P6SM SCT030 SCT100=

USA.gov is the U.S. government's official web portal to all federal, state and local government web resources and services.